Airfield :







YOU CAN JOIN US ON...

 
LOGIN :

Register | Disclaimer

   EN    FR    IT 

 









Legend :    VFR   Marginal VFR   IFR   Intensive IFR   Very Intensive IFR
Visi :
Ceiling :
>= 8 km
>= 3000ft
5 to 8 km
1000 to 3000 ft
1500m to 5 km
500 to 1000 ft
800 to 1500m
200 to 500 ft
< 800m
< 200 ft
Symbols :   Thunderstorms  Fog  Heavy snow  Heavy precipitations  Wind > 20 kt






- Airport Elevation : 199 ft
- IATA code : YRQ


CYRQ - Trois-Rivières

CURRENT METAR :
  • 231800Z AUTO 22017G23KT 190V290 9SM FEW076 26/08 A2969 RMK SLP054 DENSITY ALT 1800FT

EXPIRED METARs :
  • 231700Z AUTO 23015G20KT 210V280 9SM CLR 25/09 A2971 RMK SLP061 DENSITY ALT 1700FT
  • 231600Z AUTO 29013G23KT 210V300 9SM FEW050 25/12 A2973 RMK SLP068 DENSITY ALT 1600FT
  • 231500Z AUTO 24010G15KT 220V280 9SM SCT031 SCT060 23/16 A2972 RMK SLP064 DENSITY ALT 1500FT
  • 231400Z AUTO 23009G17KT 9SM FEW024 SCT091 SCT160 23/17 A2971 RMK SLP061 DENSITY ALT 1500FT

TAF TAF CYRQ
Valid from the 23 at 14:00 until the 24 at 02:00 UTC


231340Z 2314/2402 22008KT P6SM BKN120
BECMG 2314/2316 21012G22KT FEW120
FM232000 22015G25KT P6SM SKC
BECMG 2323/2401 22010KT RMK FCST BASED ON AUTO OBS. NXT FCST BY 232000Z
CZUL FIR / North America



MET'MAP, your aeronautical weather chart ! - Copyright ORBIFLY December 2007 - Disclaimer

ORBIFLY MET'MAP TEAM :

Programming & Development : Alexandra Zaïnal
Original concept : Baudouin d'Aumeries
Technical & hardware support : Manuel Goepfert
Assistance : Marc-Olivier Méhu




SOURCES & CREDITS :

   NOAA